createdAt,value
2019-03-08T00:02:28.209Z,7.34
2019-03-08T00:04:57.195Z,7.38
2019-03-08T00:07:26.156Z,7.41
2019-03-08T00:09:55.415Z,7.41
2019-03-08T00:12:24.313Z,7.33
2019-03-08T00:14:53.337Z,7.39
2019-03-08T00:17:22.241Z,7.35
2019-03-08T00:19:51.180Z,7.36
2019-03-08T00:22:20.208Z,7.45
2019-03-08T00:24:49.097Z,7.48
2019-03-08T00:27:18.040Z,7.47
2019-03-08T00:29:46.999Z,7.47
2019-03-08T00:32:15.992Z,7.47
2019-03-08T00:34:44.979Z,7.46
2019-03-08T00:37:14.058Z,7.47
2019-03-08T00:39:42.968Z,7.44
2019-03-08T00:42:11.892Z,7.34
2019-03-08T00:44:40.701Z,7.30
2019-03-08T00:47:09.670Z,7.17
2019-03-08T00:49:38.541Z,7.17
2019-03-08T00:52:07.443Z,7.09
2019-03-08T00:54:36.333Z,7.06
2019-03-08T00:57:05.326Z,7.09
2019-03-08T00:59:34.162Z,7.07
2019-03-08T01:02:03.598Z,7.05
2019-03-08T01:04:32.803Z,7.02
2019-03-08T01:07:03.309Z,7.11
2019-03-08T01:09:32.223Z,7.09
2019-03-08T01:12:01.362Z,7.16
2019-03-08T01:14:30.480Z,7.19
2019-03-08T01:16:59.387Z,7.24
2019-03-08T01:19:28.551Z,7.19
2019-03-08T01:21:57.699Z,7.16
2019-03-08T01:24:26.727Z,7.19
2019-03-08T01:26:55.947Z,7.05
2019-03-08T01:29:24.927Z,7.11
2019-03-08T01:31:54.023Z,7.11
2019-03-08T01:34:23.212Z,7.04
2019-03-08T01:36:52.364Z,7.06
2019-03-08T01:39:21.302Z,7.13
2019-03-08T01:41:50.316Z,7.23
2019-03-08T01:44:19.296Z,7.22
2019-03-08T01:46:48.369Z,7.23
2019-03-08T01:49:17.928Z,7.26
2019-03-08T01:51:50.074Z,7.19
2019-03-08T01:54:19.157Z,7.20
2019-03-08T01:56:48.009Z,7.20
2019-03-08T01:59:17.082Z,7.27
2019-03-08T02:01:46.096Z,7.28
2019-03-08T02:04:15.093Z,7.32
2019-03-08T02:06:46.394Z,7.44
2019-03-08T02:09:15.304Z,7.56
2019-03-08T02:11:44.197Z,7.50
2019-03-08T02:14:13.215Z,7.45
2019-03-08T02:16:42.397Z,7.41
2019-03-08T02:19:15.501Z,7.49
2019-03-08T02:21:44.613Z,7.41
2019-03-08T02:24:13.414Z,7.40
2019-03-08T02:26:42.455Z,7.35
2019-03-08T02:29:11.244Z,7.48
2019-03-08T02:31:40.354Z,7.43
2019-03-08T02:34:09.299Z,7.28
2019-03-08T02:36:38.093Z,7.27
2019-03-08T02:39:07.787Z,7.27
2019-03-08T02:41:36.686Z,7.22
2019-03-08T02:44:05.597Z,7.22
2019-03-08T02:46:34.600Z,7.20
2019-03-08T02:49:03.513Z,7.24
2019-03-08T02:51:32.535Z,7.28
2019-03-08T02:54:01.568Z,7.29
2019-03-08T02:56:30.550Z,7.16
2019-03-08T02:58:59.576Z,7.20
2019-03-08T03:01:28.528Z,7.18
2019-03-08T03:03:58.565Z,7.11
2019-03-08T03:06:27.376Z,7.07
2019-03-08T03:08:56.254Z,7.04
2019-03-08T03:11:25.241Z,6.90
2019-03-08T03:13:54.233Z,7.00
2019-03-08T03:16:23.230Z,6.97
2019-03-08T03:18:52.065Z,6.88
2019-03-08T03:21:21.111Z,6.87
2019-03-08T03:23:49.931Z,6.87
2019-03-08T03:26:18.808Z,6.87
2019-03-08T03:28:47.701Z,6.81
2019-03-08T03:31:16.466Z,6.79
2019-03-08T03:33:45.744Z,6.82
2019-03-08T03:36:14.757Z,6.70
2019-03-08T03:38:43.558Z,6.71
2019-03-08T03:41:12.648Z,6.60
2019-03-08T03:43:41.535Z,6.54
2019-03-08T03:46:10.329Z,6.61
2019-03-08T03:48:39.229Z,6.51
2019-03-08T03:51:08.191Z,6.43
2019-03-08T03:53:36.990Z,6.46
2019-03-08T03:56:06.274Z,6.44
2019-03-08T03:58:35.137Z,6.42
2019-03-08T04:01:20.578Z,6.42
2019-03-08T04:03:49.470Z,6.37
2019-03-08T04:06:18.644Z,6.32
2019-03-08T04:08:47.559Z,6.39
2019-03-08T04:11:16.450Z,6.48
2019-03-08T04:13:45.373Z,6.48
2019-03-08T04:16:14.386Z,6.43
2019-03-08T04:18:43.191Z,6.45
2019-03-08T04:21:12.286Z,6.46
2019-03-08T04:23:41.206Z,6.54
2019-03-08T04:26:10.121Z,6.67
2019-03-08T04:28:38.995Z,6.64
2019-03-08T04:31:08.256Z,6.65
2019-03-08T04:33:37.224Z,6.65
2019-03-08T04:36:06.278Z,6.64
2019-03-08T04:38:35.156Z,6.62
2019-03-08T04:41:04.146Z,6.69
2019-03-08T04:43:33.124Z,6.71
2019-03-08T04:46:02.015Z,6.75
2019-03-08T04:48:31.062Z,6.78
2019-03-08T04:51:00.176Z,6.77
2019-03-08T04:53:28.987Z,6.84
2019-03-08T04:55:57.893Z,6.80
2019-03-08T04:58:27.597Z,6.81
2019-03-08T05:00:56.562Z,6.71
2019-03-08T05:03:25.508Z,6.68
2019-03-08T05:05:54.399Z,6.72
2019-03-08T05:08:23.281Z,6.76
2019-03-08T05:10:52.256Z,6.86
2019-03-08T05:13:21.217Z,6.87
2019-03-08T05:15:50.107Z,6.86
2019-03-08T05:18:18.914Z,6.89
2019-03-08T05:20:47.822Z,6.93
2019-03-08T05:23:16.678Z,6.95
2019-03-08T05:25:45.689Z,7.00
2019-03-08T05:28:14.589Z,7.04
2019-03-08T05:30:43.487Z,6.95
2019-03-08T05:33:12.409Z,6.86
2019-03-08T05:35:41.315Z,6.78
2019-03-08T05:38:10.230Z,6.73
2019-03-08T05:40:39.116Z,6.70
2019-03-08T05:43:07.912Z,6.60
2019-03-08T05:45:36.815Z,6.67
2019-03-08T05:48:05.932Z,6.58
2019-03-08T05:50:34.975Z,6.50
2019-03-08T05:53:03.972Z,6.50
2019-03-08T05:55:32.993Z,6.51
2019-03-08T05:58:01.936Z,6.41
2019-03-08T06:00:33.873Z,6.17
2019-03-08T06:03:02.841Z,6.51
2019-03-08T06:05:31.740Z,6.42
2019-03-08T06:08:00.613Z,6.45
2019-03-08T06:10:33.582Z,6.50
2019-03-08T06:13:02.644Z,6.51
2019-03-08T06:15:31.641Z,6.58
2019-03-08T06:18:00.622Z,6.61
2019-03-08T06:20:29.585Z,6.60
2019-03-08T06:23:17.666Z,6.59
2019-03-08T06:25:46.732Z,6.58
2019-03-08T06:28:15.777Z,6.58
2019-03-08T06:30:44.657Z,6.67
2019-03-08T06:33:13.606Z,6.67
2019-03-08T06:35:42.577Z,6.62
2019-03-08T06:38:11.464Z,6.71
2019-03-08T06:40:40.381Z,6.87
2019-03-08T06:43:09.627Z,6.94
2019-03-08T06:45:38.641Z,6.93
2019-03-08T06:48:07.688Z,6.96
2019-03-08T06:50:36.656Z,7.04
2019-03-08T06:53:05.648Z,7.05
2019-03-08T06:55:34.490Z,7.12
2019-03-08T06:58:05.001Z,7.27
2019-03-08T07:01:01.988Z,7.30
2019-03-08T07:03:30.931Z,7.36
2019-03-08T07:05:59.850Z,7.29
2019-03-08T07:08:28.748Z,7.29
2019-03-08T07:10:57.639Z,7.34
2019-03-08T07:13:28.067Z,7.31
2019-03-08T07:15:57.048Z,7.36
2019-03-08T07:18:25.890Z,7.32
2019-03-08T07:21:12.904Z,7.33
2019-03-08T07:23:50.457Z,7.33
2019-03-08T07:26:37.042Z,7.39
2019-03-08T07:29:24.947Z,7.38
2019-03-08T07:32:10.356Z,7.39
2019-03-08T07:35:19.609Z,7.38
2019-03-08T07:38:33.513Z,7.48
2019-03-08T07:41:40.906Z,7.57
2019-03-08T07:44:34.515Z,7.68
2019-03-08T07:47:15.863Z,7.66
2019-03-08T07:50:02.752Z,7.70
2019-03-08T07:52:45.127Z,7.73
2019-03-08T07:55:31.914Z,7.78
2019-03-08T07:58:08.194Z,7.81
2019-03-08T08:01:00.384Z,7.72
2019-03-08T08:03:34.983Z,7.83
2019-03-08T08:06:12.832Z,7.82
2019-03-08T08:08:53.254Z,7.88
2019-03-08T08:11:50.420Z,7.81
2019-03-08T08:14:39.782Z,7.79
2019-03-08T08:17:32.883Z,7.87
2019-03-08T08:20:24.140Z,7.83
2019-03-08T08:23:11.987Z,7.85
2019-03-08T08:25:48.343Z,7.83
2019-03-08T08:28:22.725Z,7.83
2019-03-08T08:31:12.925Z,7.72
2019-03-08T08:34:07.263Z,7.70
2019-03-08T08:37:01.185Z,7.70
2019-03-08T08:39:49.458Z,7.74
2019-03-08T08:42:40.128Z,7.68
2019-03-08T08:45:27.635Z,7.65
2019-03-08T08:48:07.653Z,7.60
2019-03-08T08:51:04.541Z,7.55
2019-03-08T08:53:42.980Z,7.54
2019-03-08T08:56:26.983Z,7.57
2019-03-08T08:59:08.022Z,7.58
2019-03-08T09:02:07.628Z,7.56
2019-03-08T09:04:55.561Z,7.52
2019-03-08T09:07:49.559Z,7.47
2019-03-08T09:10:36.617Z,7.42
2019-03-08T09:13:13.602Z,7.39
2019-03-08T09:15:57.959Z,7.40
2019-03-08T09:19:00.857Z,7.32
2019-03-08T09:21:35.922Z,7.18
2019-03-08T09:24:29.175Z,7.12
2019-03-08T09:27:23.399Z,7.07
2019-03-08T09:30:09.670Z,7.00
2019-03-08T09:32:58.940Z,6.99
2019-03-08T09:35:29.542Z,7.04
2019-03-08T09:38:17.513Z,7.05
2019-03-08T09:41:08.496Z,7.04
2019-03-08T09:43:56.223Z,7.07
2019-03-08T09:46:31.338Z,7.16
2019-03-08T09:49:17.808Z,7.22
2019-03-08T09:52:14.701Z,7.29
2019-03-08T09:54:49.038Z,7.37
2019-03-08T09:57:36.978Z,7.44
2019-03-08T10:00:27.491Z,7.39
2019-03-08T10:03:21.347Z,7.38
2019-03-08T10:06:04.622Z,7.25
2019-03-08T10:09:01.842Z,7.16
2019-03-08T10:11:44.754Z,7.01
2019-03-08T10:14:22.645Z,6.89
2019-03-08T10:17:00.258Z,6.76
2019-03-08T10:19:47.512Z,6.73
2019-03-08T10:22:47.770Z,6.72
2019-03-08T10:25:25.303Z,6.77
2019-03-08T10:28:18.621Z,6.92
2019-03-08T10:30:55.175Z,7.04
2019-03-08T10:33:46.571Z,7.13
2019-03-08T10:36:40.616Z,7.29
2019-03-08T10:39:14.602Z,7.37
2019-03-08T10:41:59.608Z,7.50
2019-03-08T10:44:41.371Z,7.64
2019-03-08T10:47:38.679Z,7.85
2019-03-08T10:50:18.315Z,7.83
2019-03-08T10:53:14.806Z,8.04
2019-03-08T10:56:01.048Z,8.05
2019-03-08T10:58:56.914Z,7.90
2019-03-08T11:01:38.028Z,8.00
2019-03-08T11:04:11.286Z,8.24
2019-03-08T11:06:59.297Z,8.25
2019-03-08T11:09:53.122Z,8.43
2019-03-08T11:12:35.552Z,8.34
2019-03-08T11:15:39.437Z,8.77
2019-03-08T11:18:15.002Z,9.03
2019-03-08T11:21:06.082Z,8.90
2019-03-08T11:23:55.365Z,9.20
2019-03-08T11:26:31.810Z,9.18
2019-03-08T11:29:16.755Z,9.46
2019-03-08T11:32:04.586Z,9.28
2019-03-08T11:34:52.378Z,9.13
2019-03-08T11:37:40.390Z,8.99
2019-03-08T11:40:25.910Z,9.60
2019-03-08T11:43:07.683Z,9.75
2019-03-08T11:46:01.651Z,9.61
2019-03-08T11:48:48.367Z,9.64
2019-03-08T11:51:36.140Z,9.75
2019-03-08T11:54:24.507Z,9.25
2019-03-08T11:57:02.984Z,9.38
2019-03-08T11:59:43.477Z,9.21
2019-03-08T12:02:37.509Z,9.02
2019-03-08T12:05:25.465Z,9.24
2019-03-08T12:08:16.335Z,9.26
2019-03-08T12:11:13.722Z,9.43
2019-03-08T12:13:51.236Z,9.53
2019-03-08T12:16:37.771Z,9.57
2019-03-08T12:19:34.777Z,9.65
2019-03-08T12:22:14.647Z,9.78
2019-03-08T12:25:11.622Z,9.58
2019-03-08T12:28:06.124Z,9.72
2019-03-08T12:31:00.278Z,9.62
2019-03-08T12:33:39.759Z,9.38
2019-03-08T12:36:19.697Z,9.48
2019-03-08T12:39:26.270Z,9.29
2019-03-08T12:42:23.368Z,9.31
2019-03-08T12:45:21.492Z,9.42
2019-03-08T12:48:08.397Z,9.37
2019-03-08T12:50:53.843Z,9.36
2019-03-08T12:53:36.230Z,9.58
2019-03-08T12:56:14.059Z,9.84
2019-03-08T12:59:14.210Z,10.18
2019-03-08T13:01:56.364Z,9.94
2019-03-08T13:04:42.990Z,9.95
2019-03-08T13:07:29.257Z,9.93
2019-03-08T13:10:08.957Z,9.94
2019-03-08T13:12:38.196Z,10.20
2019-03-08T13:15:08.459Z,10.26
2019-03-08T13:17:37.476Z,10.09
2019-03-08T13:20:08.299Z,10.10
2019-03-08T13:22:37.283Z,10.18
2019-03-08T13:25:06.355Z,10.18
2019-03-08T13:27:35.656Z,9.93
2019-03-08T13:30:08.930Z,9.93
2019-03-08T13:32:38.603Z,9.71
2019-03-08T13:35:08.164Z,9.98
2019-03-08T13:37:37.164Z,9.89
2019-03-08T13:40:06.716Z,9.52
2019-03-08T13:42:35.838Z,9.84
2019-03-08T13:45:07.358Z,9.71
2019-03-08T13:47:36.773Z,9.63
2019-03-08T13:50:06.686Z,9.71
2019-03-08T13:52:35.799Z,9.74
2019-03-08T13:55:06.204Z,9.85
2019-03-08T13:57:35.101Z,9.92
2019-03-08T14:00:04.686Z,9.95
2019-03-08T14:02:36.707Z,10.06
2019-03-08T14:05:07.917Z,10.61
2019-03-08T14:07:37.344Z,10.47
2019-03-08T14:10:07.770Z,10.32
2019-03-08T14:12:36.708Z,10.20
2019-03-08T14:15:06.688Z,10.26
2019-03-08T14:17:35.629Z,10.27
2019-03-08T14:20:05.239Z,10.13
2019-03-08T14:22:34.484Z,10.24
2019-03-08T14:25:03.748Z,10.22
2019-03-08T14:27:32.842Z,10.22
2019-03-08T14:30:01.752Z,10.17
2019-03-08T14:32:30.890Z,10.26
2019-03-08T14:35:02.799Z,10.60
2019-03-08T14:39:59.793Z,10.69
2019-03-08T14:42:42.117Z,11.15
2019-03-08T14:45:40.425Z,10.72
2019-03-08T14:48:11.030Z,10.52
2019-03-08T14:50:39.953Z,10.48
2019-03-08T14:53:08.748Z,10.23
2019-03-08T14:55:37.655Z,10.41
2019-03-08T14:58:06.646Z,11.16
2019-03-08T15:00:35.652Z,11.56
2019-03-08T15:03:05.470Z,10.99
2019-03-08T15:05:34.416Z,10.45
2019-03-08T15:08:03.610Z,10.25
2019-03-08T15:10:39.389Z,10.28
2019-03-08T15:13:03.279Z,10.36
2019-03-08T15:15:32.355Z,10.34
2019-03-08T15:18:01.282Z,10.28
2019-03-08T15:20:30.620Z,10.15
2019-03-08T15:22:59.621Z,10.25
2019-03-08T15:25:31.253Z,10.11
2019-03-08T15:27:59.229Z,10.12
2019-03-08T15:30:28.221Z,10.26
2019-03-08T15:32:57.190Z,10.51
2019-03-08T15:35:26.086Z,11.49
2019-03-08T15:37:55.058Z,11.64
2019-03-08T15:40:24.108Z,11.84
2019-03-08T15:42:52.999Z,11.56
2019-03-08T15:45:22.025Z,11.51
2019-03-08T15:47:51.036Z,11.65
2019-03-08T15:50:20.068Z,11.36
2019-03-08T15:52:51.266Z,11.07
2019-03-08T15:55:19.773Z,10.65
2019-03-08T15:57:48.690Z,10.51
2019-03-08T16:00:19.408Z,10.58
2019-03-08T16:02:51.649Z,10.73
2019-03-08T16:05:23.901Z,10.75
2019-03-08T16:07:51.464Z,10.42
2019-03-08T16:10:20.880Z,10.04
2019-03-08T16:12:49.935Z,9.94
2019-03-08T16:15:18.942Z,9.89
2019-03-08T16:17:48.230Z,9.88
2019-03-08T16:20:18.730Z,9.77
2019-03-08T16:22:47.720Z,9.70
2019-03-08T16:25:16.931Z,9.65
2019-03-08T16:27:46.245Z,9.60
2019-03-08T16:30:21.086Z,9.56
2019-03-08T16:32:58.442Z,9.51
2019-03-08T16:35:30.238Z,9.45
2019-03-08T16:38:16.946Z,9.38
2019-03-08T16:41:04.798Z,9.29
2019-03-08T16:43:55.462Z,9.20
2019-03-08T16:46:43.251Z,9.07
2019-03-08T16:49:43.158Z,9.06
2019-03-08T16:52:29.425Z,8.74
2019-03-08T16:55:05.888Z,8.56
2019-03-08T16:57:56.926Z,8.14
2019-03-08T17:01:03.232Z,8.07
2019-03-08T17:03:49.339Z,7.90
2019-03-08T17:06:38.144Z,7.86
2019-03-08T17:09:26.135Z,7.88
2019-03-08T17:12:17.538Z,7.86
2019-03-08T17:15:11.182Z,7.84
2019-03-08T17:18:01.845Z,7.78
2019-03-08T17:20:38.940Z,7.54
2019-03-08T17:23:41.739Z,7.85
2019-03-08T17:26:38.642Z,7.88
2019-03-08T17:29:14.134Z,7.92
2019-03-08T17:31:51.047Z,7.97
2019-03-08T17:34:48.120Z,7.87
2019-03-08T17:37:35.393Z,7.83
2019-03-08T17:40:13.127Z,7.72
2019-03-08T17:42:59.824Z,7.71
2019-03-08T17:45:35.329Z,7.70
2019-03-08T17:48:15.013Z,7.70
2019-03-08T17:51:19.639Z,7.75
2019-03-08T17:54:06.636Z,7.65
2019-03-08T17:56:54.472Z,7.71
2019-03-08T17:59:42.069Z,7.73
2019-03-08T18:02:45.282Z,7.63
2019-03-08T18:05:25.515Z,7.77
2019-03-08T18:08:11.765Z,7.81
2019-03-08T18:10:51.568Z,7.76
2019-03-08T18:13:45.506Z,7.81
2019-03-08T18:16:29.908Z,7.82
2019-03-08T18:19:17.835Z,7.79
2019-03-08T18:22:14.978Z,7.79
2019-03-08T18:25:01.805Z,7.84
2019-03-08T18:27:45.169Z,7.89
2019-03-08T18:30:31.563Z,7.82
2019-03-08T18:33:28.854Z,7.79
2019-03-08T18:36:15.542Z,7.72
2019-03-08T18:39:03.411Z,7.66
2019-03-08T18:41:54.077Z,7.62
2019-03-08T18:44:42.098Z,7.58
2019-03-08T18:47:33.638Z,7.66
2019-03-08T18:50:20.264Z,7.59
2019-03-08T18:53:17.492Z,7.52
2019-03-08T18:55:55.020Z,7.54
2019-03-08T18:58:45.905Z,7.50
2019-03-08T19:01:27.062Z,7.47
2019-03-08T19:04:02.314Z,7.48
2019-03-08T19:06:53.657Z,7.48
2019-03-08T19:09:39.537Z,7.46
2019-03-08T19:12:39.669Z,7.42
2019-03-08T19:18:25.418Z,7.40
2019-03-08T19:21:12.174Z,7.36
2019-03-08T19:23:49.357Z,6.94
2019-03-08T19:26:32.250Z,7.31
2019-03-08T19:29:08.719Z,7.25
2019-03-08T19:31:43.219Z,7.20
2019-03-08T19:34:34.338Z,7.15
2019-03-08T19:37:20.758Z,7.20
2019-03-08T19:40:14.890Z,7.22
2019-03-08T19:43:01.397Z,7.27
2019-03-08T19:45:52.860Z,7.32
2019-03-08T19:48:27.105Z,7.36
2019-03-08T19:51:30.276Z,7.36
2019-03-08T19:54:12.521Z,7.35
2019-03-08T19:56:49.664Z,7.36
2019-03-08T19:59:27.574Z,7.36
2019-03-08T20:02:21.510Z,7.38
2019-03-08T20:05:12.665Z,7.41
2019-03-08T20:08:06.746Z,7.35
2019-03-08T20:10:58.532Z,7.34
2019-03-08T20:13:49.266Z,7.41
2019-03-08T20:16:26.446Z,7.31
2019-03-08T20:19:11.099Z,7.24
2019-03-08T20:22:01.810Z,7.23
2019-03-08T20:24:47.086Z,7.24
2019-03-08T20:27:41.260Z,7.24
2019-03-08T20:30:33.209Z,7.14
2019-03-08T20:33:27.380Z,7.17
2019-03-08T20:36:08.353Z,7.07
2019-03-08T20:38:54.154Z,7.01
2019-03-08T20:41:32.640Z,7.05
2019-03-08T20:44:20.553Z,6.91
2019-03-08T20:46:55.510Z,6.89
2019-03-08T20:49:24.492Z,6.90
2019-03-08T20:51:53.394Z,6.98
2019-03-08T20:54:22.381Z,6.94
2019-03-08T20:56:51.697Z,6.93
2019-03-08T20:59:20.472Z,6.88
2019-03-08T21:01:49.471Z,6.90
2019-03-08T21:04:18.378Z,6.83
2019-03-08T21:06:47.384Z,6.84
2019-03-08T21:09:16.287Z,6.83
2019-03-08T21:11:45.321Z,6.89
2019-03-08T21:14:14.343Z,6.84
2019-03-08T21:16:43.365Z,6.76
2019-03-08T21:19:12.374Z,6.77
2019-03-08T21:21:41.331Z,6.70
2019-03-08T21:24:10.479Z,6.70
2019-03-08T21:26:39.448Z,6.63
2019-03-08T21:29:08.468Z,6.62
2019-03-08T21:31:37.680Z,6.59
2019-03-08T21:34:06.658Z,6.68
2019-03-08T21:36:35.916Z,6.64
2019-03-08T21:39:06.538Z,6.33
2019-03-08T21:41:35.579Z,6.51
2019-03-08T21:44:04.647Z,6.50
2019-03-08T21:46:33.608Z,6.51
2019-03-08T21:49:02.707Z,6.50
2019-03-08T21:51:31.620Z,6.73
2019-03-08T21:54:00.413Z,6.84
2019-03-08T21:56:29.274Z,6.84
2019-03-08T21:58:58.082Z,6.99
2019-03-08T22:01:27.344Z,7.06
2019-03-08T22:04:04.205Z,7.01
2019-03-08T22:06:33.001Z,6.88
2019-03-08T22:09:15.615Z,6.93
2019-03-08T22:11:45.468Z,6.95
2019-03-08T22:14:14.463Z,6.99
2019-03-08T22:16:43.518Z,6.93
2019-03-08T22:19:12.979Z,7.04
2019-03-08T22:21:42.081Z,7.02
2019-03-08T22:24:13.692Z,6.91
2019-03-08T22:26:41.872Z,6.89
2019-03-08T22:29:10.686Z,7.00
2019-03-08T22:31:39.648Z,7.26
2019-03-08T22:34:08.581Z,7.34
2019-03-08T22:36:37.440Z,7.46
2019-03-08T22:39:07.315Z,7.45
2019-03-08T22:41:36.129Z,7.35
2019-03-08T22:44:05.079Z,7.29
2019-03-08T22:46:34.076Z,7.28
2019-03-08T22:49:03.340Z,7.18
2019-03-08T22:51:32.562Z,7.15
2019-03-08T22:54:01.456Z,7.15
2019-03-08T22:56:30.422Z,7.08
2019-03-08T22:58:59.241Z,7.10
2019-03-08T23:01:39.590Z,7.09
2019-03-08T23:04:08.590Z,7.12
2019-03-08T23:06:37.417Z,7.14
2019-03-08T23:09:09.167Z,7.25
2019-03-08T23:11:38.137Z,7.21
2019-03-08T23:14:07.111Z,7.24
2019-03-08T23:16:40.250Z,7.19
2019-03-08T23:19:09.338Z,7.22
2019-03-08T23:21:38.337Z,7.20
2019-03-08T23:24:07.108Z,7.26
2019-03-08T23:26:55.179Z,7.22
2019-03-08T23:29:37.800Z,7.38
2019-03-08T23:32:17.248Z,7.25
2019-03-08T23:34:46.222Z,7.26
2019-03-08T23:37:15.149Z,7.27
2019-03-08T23:39:44.140Z,7.32
2019-03-08T23:42:13.435Z,7.26
2019-03-08T23:44:42.626Z,7.28
2019-03-08T23:47:11.583Z,7.34
2019-03-08T23:49:40.439Z,7.40
2019-03-08T23:52:09.353Z,7.42
2019-03-08T23:54:38.161Z,7.45
2019-03-08T23:57:07.275Z,7.48
2019-03-08T23:59:36.168Z,7.51
